Time;durP1;ratioP1;P1;durP2;ratioP2;P2;SDS_P1;SDS_P2;PMS_P1;PMS_P2;Temp;Humidity;BMP_temperature;BMP_pressure;BME280_temperature;BME280_humidity;BME280_pressure;Samples;Min_cycle;Max_cycle;Signal;HPM_P1;HPM_P2
2023/03/10 00:02:03;;;;;;;73.40;30.70;;;10.80;99.90;;;;;;5051808;28;20455;-82
2023/03/10 00:04:29;;;;;;;66.97;29.67;;;10.80;99.90;;;;;;5052003;28;20072;-79
2023/03/10 00:06:55;;;;;;;68.25;31.55;;;10.80;99.90;;;;;;5052825;28;20028;-82
2023/03/10 00:09:20;;;;;;;86.93;36.58;;;10.80;99.90;;;;;;5052914;28;20366;-79
2023/03/10 00:11:46;;;;;;;74.22;35.35;;;10.80;99.90;;;;;;5053633;28;20082;-81
2023/03/10 00:14:12;;;;;;;81.53;36.45;;;10.80;99.90;;;;;;5053385;28;20017;-82
2023/03/10 00:16:40;;;;;;;88.93;38.28;;;10.80;99.90;;;;;;5052989;28;20040;-81
2023/03/10 00:19:06;;;;;;;90.78;40.63;;;10.80;99.90;;;;;;5053263;28;20025;-81
2023/03/10 00:21:32;;;;;;;78.88;35.17;;;10.80;99.90;;;;;;5053534;28;20044;-81
2023/03/10 00:23:58;;;;;;;78.25;37.75;;;10.70;99.90;;;;;;5051863;28;20078;-80
2023/03/10 00:26:26;;;;;;;88.72;37.55;;;10.70;99.90;;;;;;5053265;28;20060;-81
2023/03/10 00:28:53;;;;;;;88.40;38.75;;;10.70;99.90;;;;;;5053485;28;20025;-80
2023/03/10 00:31:22;;;;;;;90.75;39.13;;;10.70;99.90;;;;;;5051398;28;20029;-81
2023/03/10 00:33:49;;;;;;;79.15;36.50;;;10.60;99.90;;;;;;5052765;28;20021;-80
2023/03/10 00:36:24;;;;;;;68.55;33.38;;;10.60;99.90;;;;;;5051182;28;20033;-79
2023/03/10 00:38:51;;;;;;;60.58;30.48;;;10.60;99.90;;;;;;5052797;28;20025;-81
2023/03/10 00:41:20;;;;;;;56.85;29.35;;;10.60;99.90;;;;;;5054010;28;20527;-80
2023/03/10 00:43:45;;;;;;;75.57;34.33;;;10.60;99.90;;;;;;5056308;28;20035;-80
2023/03/10 00:46:12;;;;;;;71.25;35.38;;;10.50;99.90;;;;;;5056346;28;20029;-80
2023/03/10 00:48:38;;;;;;;77.85;36.60;;;10.50;99.90;;;;;;5056482;28;20024;-82
2023/03/10 00:51:05;;;;;;;75.38;36.90;;;10.50;99.90;;;;;;5055970;28;20463;-81
2023/03/10 00:53:32;;;;;;;79.78;37.90;;;10.50;99.90;;;;;;5055212;28;20167;-82
2023/03/10 00:56:07;;;;;;;82.15;36.53;;;10.50;99.90;;;;;;5055005;28;20348;-79
2023/03/10 00:58:33;;;;;;;83.82;36.22;;;10.50;99.90;;;;;;5054883;28;20017;-78
2023/03/10 01:01:00;;;;;;;76.45;35.90;;;10.50;99.90;;;;;;5054776;28;20033;-80
2023/03/10 01:03:26;;;;;;;70.80;32.42;;;10.50;99.90;;;;;;5056068;28;20021;-80
2023/03/10 01:05:54;;;;;;;60.63;30.13;;;10.50;99.90;;;;;;5055255;28;20375;-80
2023/03/10 01:08:20;;;;;;;56.25;26.85;;;10.50;99.90;;;;;;5056112;28;20023;-78
2023/03/10 01:10:46;;;;;;;54.97;26.98;;;10.40;99.90;;;;;;5056060;28;20100;-79
2023/03/10 01:13:13;;;;;;;62.00;26.35;;;10.40;99.90;;;;;;5053838;28;20063;-77
2023/03/10 01:15:40;;;;;;;55.38;27.05;;;10.40;99.90;;;;;;5055941;28;20451;-79
2023/03/10 01:18:06;;;;;;;48.63;25.65;;;10.40;99.90;;;;;;5054323;28;20053;-79
2023/03/10 01:20:33;;;;;;;49.85;26.50;;;10.40;99.90;;;;;;5054369;28;20025;-78
2023/03/10 01:22:59;;;;;;;57.28;27.35;;;10.30;99.90;;;;;;5054577;28;20029;-78
2023/03/10 01:25:26;;;;;;;60.90;29.75;;;10.30;99.90;;;;;;5054895;28;20098;-80
2023/03/10 01:27:52;;;;;;;55.92;28.70;;;10.40;99.90;;;;;;5055810;28;20100;-79
2023/03/10 01:30:17;;;;;;;55.70;29.50;;;10.30;99.90;;;;;;5055080;28;20415;-79
2023/03/10 01:32:43;;;;;;;55.33;28.40;;;10.30;99.90;;;;;;5053621;28;20070;-77
2023/03/10 01:35:09;;;;;;;57.97;27.25;;;10.30;99.90;;;;;;5055239;28;20108;-78
2023/03/10 01:37:35;;;;;;;59.80;29.05;;;10.30;99.90;;;;;;5054864;28;20375;-78
2023/03/10 01:40:04;;;;;;;55.55;27.05;;;10.30;99.90;;;;;;5055277;28;20070;-80
2023/03/10 01:42:30;;;;;;;60.60;29.38;;;10.30;99.90;;;;;;5054187;28;20033;-79
2023/03/10 01:45:08;;;;;;;60.40;28.80;;;10.20;99.90;;;;;;5055571;28;20049;-78
2023/03/10 01:47:34;;;;;;;61.65;27.67;;;10.20;99.90;;;;;;5067552;28;20040;-79
2023/03/10 01:50:01;;;;;;;68.53;27.88;;;10.20;99.90;;;;;;5055426;28;20028;-78
2023/03/10 01:52:31;;;;;;;61.45;29.38;;;10.10;99.90;;;;;;5054331;28;20359;-80
2023/03/10 01:55:12;;;;;;;60.28;25.48;;;10.10;99.90;;;;;;5054922;28;20451;-80
2023/03/10 01:57:45;;;;;;;56.92;25.20;;;10.10;99.90;;;;;;5049377;28;20363;-80
2023/03/10 02:00:12;;;;;;;50.97;22.38;;;10.10;99.90;;;;;;5048961;28;20021;-79
2023/03/10 02:03:11;;;;;;;42.47;22.92;;;10.10;99.90;;;;;;5047242;28;20074;-78
2023/03/10 02:05:42;;;;;;;44.53;21.92;;;10.10;99.90;;;;;;5053740;28;20033;-80
2023/03/10 02:08:08;;;;;;;43.17;21.33;;;10.10;99.90;;;;;;5054182;28;20017;-79
2023/03/10 02:10:34;;;;;;;39.95;20.80;;;10.20;99.90;;;;;;5053421;28;20032;-80
2023/03/10 02:13:00;;;;;;;38.83;19.90;;;10.10;99.90;;;;;;5053402;28;20053;-79
2023/03/10 02:15:26;;;;;;;43.15;20.10;;;10.20;99.90;;;;;;5054243;28;20040;-82
2023/03/10 02:17:53;;;;;;;47.30;19.30;;;10.10;99.90;;;;;;5053593;28;20029;-82
2023/03/10 02:20:24;;;;;;;58.70;24.63;;;10.10;99.90;;;;;;5053559;28;20017;-80
2023/03/10 02:22:50;;;;;;;58.45;24.38;;;10.10;99.90;;;;;;5053176;28;20021;-80
2023/03/10 02:25:16;;;;;;;57.50;25.23;;;10.10;99.90;;;;;;5053241;28;20120;-82
2023/03/10 02:27:42;;;;;;;57.85;25.00;;;10.10;99.90;;;;;;5053551;28;20032;-82
2023/03/10 02:30:17;;;;;;;47.03;21.75;;;10.10;99.90;;;;;;5053052;28;20027;-81
2023/03/10 02:32:50;;;;;;;42.53;20.70;;;10.00;99.90;;;;;;5053604;28;20380;-80
2023/03/10 02:35:16;;;;;;;32.22;18.30;;;10.00;99.90;;;;;;5054156;28;20017;-79
2023/03/10 02:37:42;;;;;;;32.03;17.50;;;10.00;99.90;;;;;;5054173;28;20392;-82
2023/03/10 02:40:31;;;;;;;30.00;17.38;;;10.00;99.90;;;;;;5054396;28;20455;-80
2023/03/10 02:43:02;;;;;;;34.53;18.42;;;10.00;99.90;;;;;;5054194;28;20463;-80
2023/03/10 02:45:31;;;;;;;46.35;23.13;;;10.00;99.90;;;;;;5055011;28;20479;-82
2023/03/10 02:47:56;;;;;;;35.97;20.08;;;10.00;99.90;;;;;;5054770;28;20024;-80
2023/03/10 02:50:25;;;;;;;34.90;19.70;;;9.90;99.90;;;;;;5053138;28;20328;-80
2023/03/10 02:53:00;;;;;;;34.22;18.95;;;9.90;99.90;;;;;;5054660;28;20028;-80
2023/03/10 02:55:26;;;;;;;30.08;16.70;;;9.90;99.90;;;;;;5054660;28;20087;-81
2023/03/10 02:57:52;;;;;;;34.00;18.35;;;9.90;99.90;;;;;;5052938;28;20021;-79
2023/03/10 03:00:17;;;;;;;37.63;20.15;;;9.90;99.90;;;;;;5053219;28;20021;-80
2023/03/10 03:02:43;;;;;;;39.47;19.73;;;9.90;99.90;;;;;;5053303;28;20111;-81
2023/03/10 03:05:09;;;;;;;40.28;20.38;;;9.90;99.90;;;;;;5053903;28;20029;-80
2023/03/10 03:07:35;;;;;;;43.60;21.52;;;9.80;99.90;;;;;;5054125;28;20027;-81
2023/03/10 03:10:01;;;;;;;42.25;21.75;;;9.80;99.90;;;;;;5053095;28;20017;-80
2023/03/10 03:12:26;;;;;;;34.45;19.55;;;9.80;99.90;;;;;;5051708;28;20075;-81
2023/03/10 03:14:52;;;;;;;63.58;26.20;;;9.80;99.90;;;;;;5052486;28;20021;-81
2023/03/10 03:17:18;;;;;;;87.75;34.70;;;9.70;99.90;;;;;;5053201;28;20048;-81
2023/03/10 03:19:44;;;;;;;80.38;34.15;;;9.70;99.90;;;;;;5052438;28;20025;-81
2023/03/10 03:22:09;;;;;;;73.68;31.08;;;9.70;99.90;;;;;;5052459;28;20036;-79
2023/03/10 03:24:35;;;;;;;75.35;32.00;;;9.70;99.90;;;;;;5052975;28;20367;-82
2023/03/10 03:27:01;;;;;;;80.20;33.88;;;9.70;99.90;;;;;;5052211;28;20036;-81
2023/03/10 03:29:26;;;;;;;71.95;31.80;;;9.70;99.90;;;;;;5052398;28;20032;-80
2023/03/10 03:31:52;;;;;;;61.50;28.30;;;9.70;99.90;;;;;;5051411;28;20398;-81
2023/03/10 03:34:19;;;;;;;63.10;26.85;;;9.60;99.90;;;;;;5053800;28;20031;-81
2023/03/10 03:36:45;;;;;;;49.90;21.50;;;9.70;99.90;;;;;;5053485;28;20421;-80
2023/03/10 03:39:15;;;;;;;44.70;21.92;;;9.60;99.90;;;;;;5051697;28;20075;-80
2023/03/10 03:41:42;;;;;;;35.42;17.42;;;9.60;99.90;;;;;;5052303;28;20043;-80
2023/03/10 03:44:08;;;;;;;38.63;16.77;;;9.70;99.90;;;;;;5053171;28;20104;-80
2023/03/10 03:46:33;;;;;;;41.67;19.38;;;9.60;99.90;;;;;;5051486;28;20111;-81
2023/03/10 03:49:00;;;;;;;32.75;16.38;;;9.60;99.90;;;;;;5053171;28;20033;-78
2023/03/10 03:51:26;;;;;;;53.40;21.20;;;9.60;99.90;;;;;;5051641;28;20027;-78
2023/03/10 03:53:51;;;;;;;44.40;19.52;;;9.60;99.90;;;;;;5045025;28;20025;-78
2023/03/10 03:56:17;;;;;;;42.55;18.23;;;9.60;99.90;;;;;;5051709;28;20029;-78
2023/03/10 03:58:43;;;;;;;37.47;17.33;;;9.60;99.90;;;;;;5051536;28;20029;-78
2023/03/10 04:01:09;;;;;;;22.63;12.80;;;9.60;99.90;;;;;;5052901;28;20485;-79
2023/03/10 04:03:34;;;;;;;23.38;12.23;;;9.60;99.90;;;;;;5051924;28;20047;-78
2023/03/10 04:06:00;;;;;;;28.25;12.80;;;9.50;99.90;;;;;;5052761;28;20036;-79
2023/03/10 04:08:26;;;;;;;30.42;13.10;;;9.60;99.90;;;;;;5051966;28;20017;-79
2023/03/10 04:10:54;;;;;;;29.90;14.23;;;9.60;99.90;;;;;;5052272;28;20028;-78
2023/03/10 04:13:20;;;;;;;29.67;13.30;;;9.60;99.90;;;;;;5053175;28;20099;-79
2023/03/10 04:15:46;;;;;;;35.25;12.95;;;9.50;99.90;;;;;;5054230;28;20068;-78
2023/03/10 04:18:11;;;;;;;24.10;12.43;;;9.60;99.90;;;;;;5057253;28;20102;-79
2023/03/10 04:20:37;;;;;;;22.45;11.70;;;9.50;99.90;;;;;;5055991;28;20020;-78
2023/03/10 04:23:03;;;;;;;21.33;11.98;;;9.50;99.90;;;;;;5056102;28;20099;-79
2023/03/10 04:25:29;;;;;;;22.08;11.48;;;9.50;99.90;;;;;;5056198;28;20067;-80
2023/03/10 04:27:56;;;;;;;21.13;12.10;;;9.50;99.90;;;;;;5057081;28;20451;-78
2023/03/10 04:30:27;;;;;;;27.77;13.55;;;9.40;99.90;;;;;;5057377;28;20043;-80
2023/03/10 04:32:56;;;;;;;30.70;16.67;;;9.40;99.90;;;;;;5057151;28;20398;-79
2023/03/10 04:35:22;;;;;;;31.73;16.77;;;9.40;99.90;;;;;;5055626;28;20021;-79
2023/03/10 04:37:48;;;;;;;30.88;16.70;;;9.40;99.90;;;;;;5057002;28;20024;-77
2023/03/10 04:40:14;;;;;;;30.75;17.45;;;9.30;99.90;;;;;;5056943;28;20017;-79
2023/03/10 04:42:40;;;;;;;33.63;17.98;;;9.30;99.90;;;;;;5056484;28;20104;-79
2023/03/10 04:45:06;;;;;;;39.90;21.02;;;9.30;99.90;;;;;;5056811;28;20017;-79
2023/03/10 04:47:32;;;;;;;52.50;26.42;;;9.20;99.90;;;;;;5057159;28;20025;-80
2023/03/10 04:49:58;;;;;;;66.43;30.90;;;9.20;99.90;;;;;;5056930;28;20448;-80
2023/03/10 04:52:24;;;;;;;65.28;31.25;;;9.20;99.90;;;;;;5056056;28;20021;-80
2023/03/10 04:54:49;;;;;;;55.03;28.83;;;9.10;99.90;;;;;;5055145;28;20059;-80
2023/03/10 04:57:15;;;;;;;48.42;26.27;;;9.10;99.90;;;;;;5054679;28;20393;-80
2023/03/10 04:59:41;;;;;;;44.80;22.10;;;9.10;99.90;;;;;;5054795;28;20070;-78
2023/03/10 05:02:07;;;;;;;33.83;18.88;;;9.00;99.90;;;;;;5054764;28;20456;-80
2023/03/10 05:04:33;;;;;;;35.05;17.17;;;9.00;99.90;;;;;;5048672;28;20087;-78
2023/03/10 05:06:58;;;;;;;34.55;17.67;;;9.00;99.90;;;;;;5054630;28;20029;-78
2023/03/10 05:09:24;;;;;;;33.20;18.73;;;9.00;99.90;;;;;;5054402;28;20056;-79
2023/03/10 05:11:50;;;;;;;44.97;22.13;;;9.00;99.90;;;;;;5054336;28;20029;-78
2023/03/10 05:14:17;;;;;;;49.55;24.67;;;9.00;99.90;;;;;;5054761;28;20024;-81
2023/03/10 05:16:43;;;;;;;54.42;27.70;;;9.00;99.90;;;;;;5054291;28;20032;-79
2023/03/10 05:19:08;;;;;;;62.65;30.52;;;9.00;99.90;;;;;;5055395;28;20104;-80
2023/03/10 05:21:34;;;;;;;57.40;30.10;;;9.00;99.90;;;;;;5054584;28;20032;-79
2023/03/10 05:24:00;;;;;;;55.88;28.25;;;9.00;99.90;;;;;;5055037;28;20478;-77
2023/03/10 05:26:26;;;;;;;50.35;28.27;;;9.00;99.90;;;;;;5054586;28;20029;-78
2023/03/10 05:28:52;;;;;;;59.58;30.17;;;9.00;99.90;;;;;;5053432;28;20028;-80
2023/03/10 05:31:24;;;;;;;53.40;27.35;;;9.10;99.90;;;;;;5054001;28;20025;-81
2023/03/10 05:33:51;;;;;;;58.70;26.92;;;9.10;99.90;;;;;;5056135;28;20024;-82
2023/03/10 05:36:17;;;;;;;54.15;28.13;;;9.10;99.90;;;;;;5054197;28;20046;-80
2023/03/10 05:38:42;;;;;;;56.13;27.98;;;9.20;99.90;;;;;;5055282;28;20455;-81
2023/03/10 05:41:09;;;;;;;57.42;29.85;;;9.20;99.90;;;;;;5055799;28;20463;-81
2023/03/10 05:43:36;;;;;;;60.58;28.65;;;9.30;99.90;;;;;;5055507;28;20032;-78
2023/03/10 05:46:02;;;;;;;56.33;28.83;;;9.30;99.90;;;;;;5054909;28;20489;-80
2023/03/10 05:48:28;;;;;;;56.50;27.83;;;9.40;99.90;;;;;;5054034;28;20025;-80
2023/03/10 05:51:02;;;;;;;52.05;27.15;;;9.50;99.90;;;;;;5053762;28;20078;-80
2023/03/10 05:53:29;;;;;;;92.28;43.95;;;9.50;99.90;;;;;;5053719;28;20028;-80
2023/03/10 05:55:55;;;;;;;95.10;44.25;;;9.50;99.90;;;;;;5055194;28;20025;-80
2023/03/10 05:58:22;;;;;;;73.47;35.42;;;9.60;99.90;;;;;;5054648;28;20049;-79
2023/03/10 06:00:48;;;;;;;72.82;37.25;;;9.60;99.90;;;;;;5055095;28;20024;-80
2023/03/10 06:03:13;;;;;;;71.57;33.38;;;9.60;99.90;;;;;;5053498;28;21553;-81
2023/03/10 06:05:39;;;;;;;80.13;33.88;;;9.70;99.90;;;;;;5053005;28;20036;-80
2023/03/10 06:08:05;;;;;;;74.82;33.95;;;9.70;99.90;;;;;;5055625;28;20032;-79
2023/03/10 06:10:30;;;;;;;82.28;37.60;;;9.80;99.90;;;;;;5054196;28;20028;-80
2023/03/10 06:12:56;;;;;;;192.05;61.65;;;9.80;99.90;;;;;;5053643;28;20127;-80
2023/03/10 06:15:22;;;;;;;79.20;34.03;;;9.80;99.90;;;;;;5054226;28;20027;-78
2023/03/10 06:17:47;;;;;;;77.32;34.53;;;9.80;99.90;;;;;;5054194;28;20028;-79
2023/03/10 06:20:14;;;;;;;89.97;40.97;;;9.90;99.90;;;;;;5053725;28;20035;-81
2023/03/10 06:22:40;;;;;;;89.57;41.17;;;9.90;99.90;;;;;;5055237;28;20439;-79
2023/03/10 06:25:06;;;;;;;89.38;40.28;;;9.90;99.90;;;;;;5054859;28;20017;-80
2023/03/10 06:27:32;;;;;;;88.00;40.50;;;10.00;99.90;;;;;;5054081;28;20086;-80
2023/03/10 06:29:58;;;;;;;100.57;39.72;;;10.10;99.90;;;;;;5052921;28;20024;-80
2023/03/10 06:32:24;;;;;;;96.78;43.58;;;10.10;99.90;;;;;;5051294;28;20482;-82
2023/03/10 06:34:50;;;;;;;113.35;45.42;;;10.20;99.90;;;;;;5053824;28;20061;-81
2023/03/10 06:37:16;;;;;;;111.38;50.35;;;10.20;99.90;;;;;;5054196;28;20356;-81
2023/03/10 06:39:42;;;;;;;99.68;46.45;;;10.30;99.90;;;;;;5053659;28;20414;-79
2023/03/10 06:42:08;;;;;;;100.30;46.00;;;10.20;99.90;;;;;;5054540;28;20033;-80
2023/03/10 06:44:34;;;;;;;82.75;44.40;;;10.30;99.90;;;;;;5054499;28;20021;-80
2023/03/10 06:47:03;;;;;;;89.85;42.50;;;10.30;99.90;;;;;;5054534;28;20402;-79
2023/03/10 06:49:31;;;;;;;102.68;52.38;;;10.30;99.90;;;;;;5052821;28;20032;-81
2023/03/10 06:51:57;;;;;;;94.60;45.40;;;10.30;99.90;;;;;;5052847;28;20461;-79
2023/03/10 06:54:23;;;;;;;89.57;44.33;;;10.30;99.90;;;;;;5053471;28;20021;-79
2023/03/10 06:56:49;;;;;;;98.10;48.97;;;10.40;99.90;;;;;;5052745;28;20025;-79
2023/03/10 06:59:15;;;;;;;99.30;51.22;;;10.40;99.90;;;;;;5054175;28;20037;-81
2023/03/10 07:01:41;;;;;;;104.97;48.22;;;10.40;99.90;;;;;;5054306;28;20028;-80
2023/03/10 07:04:09;;;;;;;90.32;45.08;;;10.50;99.90;;;;;;5053628;28;20017;-82
2023/03/10 07:06:34;;;;;;;82.88;40.97;;;10.50;99.90;;;;;;5052268;28;20035;-81
2023/03/10 07:09:00;;;;;;;84.90;44.65;;;10.60;99.90;;;;;;5050174;28;20592;-81
2023/03/10 07:11:26;;;;;;;106.55;53.50;;;10.60;99.90;;;;;;5050633;28;20028;-80
2023/03/10 07:13:53;;;;;;;112.10;51.83;;;10.70;99.90;;;;;;5050724;28;20430;-80
2023/03/10 07:16:20;;;;;;;111.30;53.38;;;10.70;99.90;;;;;;5050677;28;20021;-82
2023/03/10 07:18:46;;;;;;;83.43;42.65;;;10.70;99.90;;;;;;5050807;28;20052;-81
2023/03/10 07:21:17;;;;;;;80.65;41.17;;;10.70;99.90;;;;;;5052212;28;20021;-81
2023/03/10 07:23:42;;;;;;;81.57;38.05;;;10.70;99.90;;;;;;5052917;28;20029;-82
2023/03/10 07:26:08;;;;;;;85.88;36.85;;;10.70;99.90;;;;;;5053201;28;20047;-80
2023/03/10 07:28:36;;;;;;;53.13;27.70;;;10.80;99.90;;;;;;5053457;28;20108;-82
2023/03/10 07:31:07;;;;;;;63.78;30.08;;;10.80;99.90;;;;;;5053006;28;20074;-82
2023/03/10 07:33:33;;;;;;;71.22;32.05;;;10.90;99.90;;;;;;5052014;28;20092;-82
2023/03/10 07:36:03;;;;;;;78.60;36.10;;;10.90;99.90;;;;;;5052141;28;20045;-82
2023/03/10 07:38:28;;;;;;;55.38;25.77;;;10.90;99.90;;;;;;5053458;28;20021;-81
2023/03/10 07:40:54;;;;;;;51.20;23.58;;;10.90;99.90;;;;;;5052995;28;20038;-80
2023/03/10 07:43:19;;;;;;;41.72;22.67;;;10.90;99.90;;;;;;5051657;28;20081;-79
2023/03/10 07:45:45;;;;;;;49.40;22.55;;;11.00;99.90;;;;;;5052131;28;20036;-82
2023/03/10 07:48:11;;;;;;;44.85;22.80;;;11.00;99.90;;;;;;5051710;28;20051;-81
2023/03/10 07:50:36;;;;;;;58.72;25.13;;;11.00;99.90;;;;;;5051296;28;20028;-83
2023/03/10 07:53:02;;;;;;;63.30;30.55;;;11.00;99.90;;;;;;5053296;28;20518;-80
2023/03/10 07:55:28;;;;;;;99.63;43.50;;;11.00;99.90;;;;;;5051773;28;20017;-82
2023/03/10 07:57:55;;;;;;;80.50;37.20;;;11.00;99.90;;;;;;5051724;28;20021;-80
2023/03/10 08:00:21;;;;;;;52.45;26.42;;;11.00;99.90;;;;;;5053314;28;20021;-81
2023/03/10 08:02:47;;;;;;;47.53;23.33;;;10.80;99.90;;;;;;5052871;28;20028;-79
2023/03/10 08:05:13;;;;;;;46.72;23.80;;;10.70;99.90;;;;;;5053022;28;20100;-80
2023/03/10 08:07:39;;;;;;;40.47;21.35;;;10.60;99.90;;;;;;5053248;28;20033;-81
2023/03/10 08:10:06;;;;;;;52.42;25.05;;;10.60;99.90;;;;;;5052748;28;20025;-80
2023/03/10 08:12:33;;;;;;;113.15;46.13;;;10.50;99.90;;;;;;5051482;28;20045;-82
2023/03/10 08:14:58;;;;;;;72.13;32.20;;;10.50;99.90;;;;;;5052346;28;20036;-81
2023/03/10 08:17:29;;;;;;;83.18;38.92;;;10.50;99.90;;;;;;5053461;28;20047;-80
2023/03/10 08:19:56;;;;;;;83.28;37.53;;;10.50;99.90;;;;;;5052141;28;20029;-80
2023/03/10 08:22:22;;;;;;;80.53;36.35;;;10.50;99.90;;;;;;5066673;28;20021;-80
2023/03/10 08:24:48;;;;;;;145.98;59.20;;;10.50;99.90;;;;;;5074001;28;20457;-79
2023/03/10 08:27:13;;;;;;;183.65;70.80;;;10.50;99.90;;;;;;5073099;28;20024;-82
2023/03/10 08:29:39;;;;;;;142.80;57.97;;;10.50;99.90;;;;;;5056690;28;20025;-83
2023/03/10 08:32:05;;;;;;;134.07;57.67;;;10.50;99.90;;;;;;5057923;28;20031;-79
2023/03/10 08:34:32;;;;;;;132.10;62.60;;;10.50;99.90;;;;;;5050819;28;20029;-79
2023/03/10 08:36:59;;;;;;;126.25;61.92;;;10.60;99.90;;;;;;5052878;28;20032;-79
2023/03/10 08:39:26;;;;;;;112.78;57.35;;;10.60;99.90;;;;;;5050641;28;20021;-81
2023/03/10 08:41:52;;;;;;;76.20;38.10;;;10.60;99.90;;;;;;5056429;28;20374;-82
2023/03/10 08:44:18;;;;;;;66.70;34.17;;;10.60;99.90;;;;;;5068880;28;20095;-81
2023/03/10 08:46:46;;;;;;;45.70;22.25;;;10.60;99.90;;;;;;5062074;28;20021;-81
2023/03/10 08:49:13;;;;;;;48.70;23.95;;;10.60;99.90;;;;;;5053147;28;20444;-79
2023/03/10 08:51:40;;;;;;;52.88;24.50;;;10.60;99.90;;;;;;5051981;28;20017;-80
2023/03/10 08:54:07;;;;;;;41.88;22.42;;;10.70;99.90;;;;;;5059814;28;20021;-80
2023/03/10 08:56:33;;;;;;;32.97;17.98;;;10.70;99.90;;;;;;5072096;28;20052;-79
2023/03/10 08:58:59;;;;;;;58.90;35.67;;;10.70;99.90;;;;;;5061563;28;20478;-79
2023/03/10 09:01:36;;;;;;;53.35;31.50;;;10.70;99.90;;;;;;5051678;28;20452;-78
2023/03/10 09:04:03;;;;;;;53.25;27.00;;;10.60;99.90;;;;;;5056819;28;20474;-79
2023/03/10 09:06:29;;;;;;;53.80;26.33;;;10.60;99.90;;;;;;5056632;28;20032;-79
2023/03/10 09:08:56;;;;;;;32.97;17.40;;;10.60;99.90;;;;;;5056121;28;20025;-80
2023/03/10 09:11:25;;;;;;;30.50;12.07;;;10.70;99.90;;;;;;5056667;28;20017;-78
2023/03/10 09:13:51;;;;;;;18.60;7.88;;;10.90;99.90;;;;;;5055232;28;20130;-78
2023/03/10 09:16:18;;;;;;;14.98;6.95;;;11.00;99.90;;;;;;5056236;28;20029;-79
2023/03/10 09:18:44;;;;;;;17.88;8.65;;;11.00;99.90;;;;;;5055249;28;20044;-77
2023/03/10 09:21:12;;;;;;;17.38;9.50;;;11.10;99.90;;;;;;5056126;28;20443;-77
2023/03/10 09:23:41;;;;;;;13.77;7.50;;;11.10;99.90;;;;;;5056328;28;20023;-79
2023/03/10 09:26:07;;;;;;;28.67;12.65;;;11.10;99.90;;;;;;5056277;28;20104;-80
2023/03/10 09:28:33;;;;;;;28.23;13.93;;;11.10;99.90;;;;;;5059502;28;20013;-78
2023/03/10 09:30:59;;;;;;;27.10;15.05;;;11.10;99.90;;;;;;5063518;28;20469;-78
2023/03/10 09:33:25;;;;;;;32.28;15.13;;;11.10;99.90;;;;;;5055927;28;20025;-80
2023/03/10 09:35:50;;;;;;;38.20;18.95;;;11.00;99.90;;;;;;5054222;28;20033;-79
2023/03/10 09:38:16;;;;;;;27.42;14.90;;;11.00;99.90;;;;;;5055944;28;20025;-76
2023/03/10 09:40:52;;;;;;;15.32;11.38;;;11.00;99.90;;;;;;5055093;28;20021;-78
2023/03/10 09:43:19;;;;;;;12.25;6.38;;;11.10;99.90;;;;;;5055753;28;20347;-78
2023/03/10 09:46:13;;;;;;;10.07;5.97;;;11.00;99.90;;;;;;5055968;28;20020;-77
2023/03/10 09:48:51;;;;;;;11.98;8.20;;;11.10;99.90;;;;;;5055900;28;20478;-78
2023/03/10 09:51:25;;;;;;;13.18;8.82;;;11.10;99.90;;;;;;5055835;28;20066;-79
2023/03/10 09:54:00;;;;;;;16.67;9.05;;;11.10;99.90;;;;;;5055967;28;20075;-77
2023/03/10 09:56:31;;;;;;;28.55;15.32;;;11.10;99.90;;;;;;5055469;28;20067;-78
2023/03/10 09:59:34;;;;;;;36.15;18.63;;;11.20;99.90;;;;;;5055918;28;20024;-77
2023/03/10 10:02:02;;;;;;;39.35;19.45;;;11.30;99.90;;;;;;5054676;28;20106;-79
2023/03/10 10:04:35;;;;;;;44.80;18.92;;;11.30;99.90;;;;;;5053737;28;20029;-78
2023/03/10 10:07:04;;;;;;;158.23;57.33;;;11.40;99.90;;;;;;5055526;28;20035;-77
2023/03/10 10:09:58;;;;;;;62.90;29.50;;;11.40;99.90;;;;;;5055234;28;20028;-79
2023/03/10 10:12:25;;;;;;;109.97;51.65;;;11.50;99.90;;;;;;5055029;28;20040;-79
2023/03/10 10:15:00;;;;;;;121.43;57.65;;;11.60;99.90;;;;;;5054651;28;20029;-80
2023/03/10 10:17:29;;;;;;;33.10;18.83;;;11.60;99.90;;;;;;5055203;28;20108;-79
2023/03/10 10:19:56;;;;;;;25.02;14.70;;;11.60;99.90;;;;;;5055276;28;20013;-78
2023/03/10 10:22:33;;;;;;;23.73;13.27;;;11.60;99.90;;;;;;5053508;28;20336;-80
2023/03/10 10:25:01;;;;;;;29.80;17.45;;;11.60;99.90;;;;;;5053983;28;20040;-79
2023/03/10 10:27:30;;;;;;;22.30;9.20;;;11.70;99.90;;;;;;5054339;28;20108;-78
2023/03/10 10:29:57;;;;;;;22.73;10.52;;;11.70;99.90;;;;;;5054130;28;20032;-79
2023/03/10 10:32:23;;;;;;;80.05;38.15;;;11.70;99.90;;;;;;5053927;28;20025;-78
2023/03/10 10:34:48;;;;;;;102.47;52.25;;;11.70;99.90;;;;;;5052911;28;20016;-78
2023/03/10 10:37:37;;;;;;;73.30;40.50;;;11.70;99.90;;;;;;5054679;28;20160;-81
2023/03/10 10:40:25;;;;;;;83.32;43.58;;;11.80;99.90;;;;;;5054466;28;20083;-78
2023/03/10 10:42:52;;;;;;;90.80;48.70;;;11.80;99.90;;;;;;5053667;28;20059;-78
2023/03/10 10:45:38;;;;;;;106.25;55.75;;;11.80;99.90;;;;;;5052371;28;20064;-78
2023/03/10 10:48:30;;;;;;;86.95;49.85;;;11.80;99.90;;;;;;5047656;28;20108;-82
2023/03/10 10:50:56;;;;;;;35.10;19.30;;;11.90;99.90;;;;;;5054763;28;20020;-78
2023/03/10 10:53:25;;;;;;;56.78;27.58;;;11.80;99.90;;;;;;5054017;28;20446;-84
2023/03/10 10:56:00;;;;;;;53.75;26.15;;;11.80;99.90;;;;;;5053425;28;20030;-79
2023/03/10 10:58:41;;;;;;;46.90;23.50;;;11.80;99.90;;;;;;5054346;28;20028;-77
2023/03/10 11:01:13;;;;;;;19.83;11.82;;;11.80;99.90;;;;;;5054030;28;20024;-77
2023/03/10 11:03:46;;;;;;;38.22;21.00;;;11.80;99.90;;;;;;5053323;28;20044;-77
2023/03/10 11:06:26;;;;;;;59.28;29.08;;;11.90;99.90;;;;;;5053342;28;20459;-78
2023/03/10 11:09:04;;;;;;;19.80;11.27;;;11.90;99.90;;;;;;5065379;28;20033;-79
2023/03/10 11:11:36;;;;;;;21.60;11.38;;;11.90;99.90;;;;;;5068569;28;20028;-79
2023/03/10 11:14:13;;;;;;;16.23;8.30;;;12.00;99.90;;;;;;5059362;28;20471;-76
2023/03/10 11:17:01;;;;;;;37.50;16.85;;;12.00;99.90;;;;;;5054080;28;20130;-79
2023/03/10 11:19:54;;;;;;;21.25;11.13;;;12.00;99.90;;;;;;5053042;28;20025;-78
2023/03/10 11:22:43;;;;;;;36.60;16.20;;;12.00;99.90;;;;;;5053699;28;20040;-78
2023/03/10 11:25:41;;;;;;;16.13;6.85;;;12.00;99.90;;;;;;5053288;28;20024;-81
2023/03/10 11:28:37;;;;;;;17.10;8.98;;;12.00;99.90;;;;;;5051978;28;20031;-80
2023/03/10 11:31:35;;;;;;;11.00;5.38;;;12.10;99.90;;;;;;5047344;28;20044;-78
2023/03/10 11:34:29;;;;;;;15.02;7.47;;;12.10;99.90;;;;;;5052966;28;20059;-78
2023/03/10 11:37:13;;;;;;;19.60;10.10;;;12.10;99.90;;;;;;5051790;28;20029;-80
2023/03/10 11:40:12;;;;;;;62.40;25.33;;;12.20;99.90;;;;;;5046287;28;20372;-79
2023/03/10 11:42:49;;;;;;;48.10;19.20;;;12.20;99.90;;;;;;5049310;28;20036;-77
2023/03/10 11:45:34;;;;;;;43.00;20.67;;;12.30;99.90;;;;;;5052849;28;20025;-81
2023/03/10 11:48:28;;;;;;;26.08;13.25;;;12.30;99.90;;;;;;5052253;28;20375;-79
2023/03/10 11:50:59;;;;;;;29.98;13.10;;;12.40;99.90;;;;;;5048275;28;20031;-81
2023/03/10 11:53:46;;;;;;;17.63;9.80;;;12.50;99.90;;;;;;5053592;28;20021;-78
2023/03/10 11:56:14;;;;;;;23.67;13.30;;;12.60;99.90;;;;;;5053459;28;20056;-79
2023/03/10 11:59:02;;;;;;;15.45;8.73;;;12.80;99.90;;;;;;5052504;28;20028;-79
2023/03/10 12:01:43;;;;;;;16.45;8.88;;;12.90;99.90;;;;;;5052739;28;20029;-81
2023/03/10 12:04:20;;;;;;;16.52;8.95;;;13.20;99.90;;;;;;5052148;28;20017;-81
2023/03/10 12:06:59;;;;;;;30.08;12.32;;;13.30;99.90;;;;;;5052356;28;20055;-82
2023/03/10 12:09:50;;;;;;;30.45;15.05;;;13.40;99.90;;;;;;5052080;28;20459;-81
2023/03/10 12:12:24;;;;;;;13.95;8.27;;;13.60;99.90;;;;;;5052260;28;20056;-80
2023/03/10 12:14:51;;;;;;;10.82;5.55;;;13.60;99.90;;;;;;5052385;28;20025;-82
2023/03/10 12:17:17;;;;;;;15.98;7.85;;;13.70;99.90;;;;;;5052093;28;20033;-82
2023/03/10 12:20:14;;;;;;;9.45;5.40;;;13.80;99.90;;;;;;5052404;28;20032;-80
2023/03/10 12:22:41;;;;;;;11.40;5.82;;;14.10;99.90;;;;;;5052728;28;20362;-80
2023/03/10 12:25:34;;;;;;;13.98;6.57;;;14.40;99.90;;;;;;5051926;28;20028;-80
2023/03/10 12:28:23;;;;;;;16.90;9.80;;;14.70;99.90;;;;;;5053602;28;20029;-80
2023/03/10 12:31:04;;;;;;;14.93;8.50;;;14.80;99.90;;;;;;5052071;28;20017;-80
2023/03/10 12:33:29;;;;;;;11.50;6.80;;;15.10;99.90;;;;;;5052186;28;20024;-81
2023/03/10 12:36:13;;;;;;;9.82;5.93;;;14.90;99.90;;;;;;5052214;28;20021;-81
2023/03/10 12:38:53;;;;;;;13.23;7.55;;;15.00;99.90;;;;;;5055573;28;20021;-80
2023/03/10 12:41:25;;;;;;;11.02;6.15;;;14.90;99.90;;;;;;5057252;28;20016;-81
2023/03/10 12:43:52;;;;;;;;;;;14.80;99.90;;;;;;5057900;28;20083;-80